Data for 05/22/2009

Time Sea-Level Adjusted Pressure Absolute Pressure Temperature Relative Humidity Dew Point   
(mb) (inHg) (mb) (inHg) (C) (F) (%) (C) (F)
00:05 1020 30.12 849 25.07 9.4 48.9 44 -2.2 28
00:10 1020 30.12 849 25.07 9.5 49 45 -1.9 28.5
00:15 1020 30.12 849 25.07 9.4 49 45 -1.8 28.8
00:20 1020 30.12 849 25.07 9.2 48.6 46 -1.6 29.1
00:25 1020 30.12 849 25.07 9 48.3 48 -1.5 29.3
00:30 1020 30.12 849 25.07 9 48.2 46 -1.8 28.7
00:35 1020 30.12 849 25.07 9.3 48.7 46 -1.6 29
00:40 1020 30.12 849 25.07 9.6 49.2 46 -1.4 29.5
00:45 1020 30.12 849 25.07 9.5 49 47 -1.1 30
00:50 1020 30.12 849 25.07 9.6 49.2 47 -1.1 30
00:55 1020 30.12 849 25.07 9.5 49.2 47 -1.1 30
01:00 1020 30.12 849 25.07 9.5 49 50 -0.5 31
01:05 1020 30.12 849 25.07 9.3 48.7 49 -0.9 30.4
01:10 1020 30.12 849 25.07 9 48.2 50 -0.9 30.3
01:15 1020 30.12 849 25.07 8.8 47.9 50 -0.9 30.4
01:20 1020 30.12 849 25.07 8.3 47 51 -1.2 29.9
01:25 1020 30.12 849 25.07 8.2 46.8 52 -1.1 30
01:30 1020 30.12 849 25.07 8.1 46.6 52 -1.1 30
01:35 1020 30.12 849 25.07 8 46.4 52 -1.2 29.9
01:40 1020 30.12 849 25.07 7.9 46.3 53 -1.1 30
01:45 1020 30.12 849 25.07 7.9 46.2 53 -1.2 29.8
01:50 1020 30.12 849 25.07 8 46.4 52 -1.2 29.8
01:55 1020 30.12 849 25.07 7.9 46.1 53 -1.2 29.9
02:00 1020 30.12 849 25.07 7.7 45.8 53 -1.4 29.5
02:05 1020 30.12 850 25.1 7.9 46.2 52 -1.4 29.5
02:10 1020 30.12 850 25.1 7.9 46.2 53 -1 30.3
02:15 1020 30.12 850 25.1 7.7 45.9 54 -1 30.2
02:20 1020 30.12 850 25.1 7.9 46.3 53 -1.1 30.1
02:25 1020 30.12 850 25.1 7.8 46.1 54 -0.8 30.6
02:30 1020 30.12 850 25.1 8.1 46.5 53 -1 30.1
02:35 1020 30.12 850 25.1 8 46.5 54 -0.7 30.7
02:40 1020 30.12 850 25.1 7.9 46.1 54 -0.8 30.5
02:45 1020 30.12 850 25.1 7.6 45.6 55 -0.8 30.5
02:50 1020 30.12 850 25.1 7.4 45.2 55 -1 30.2
02:55 1020 30.12 850 25.1 7.4 45.4 55 -0.9 30.4
03:00 1020 30.12 850 25.1 7.3 45.1 56 -0.8 30.5
03:05 1021 30.15 850 25.1 7.1 44.8 58 -0.6 30.9
03:10 1021 30.15 850 25.1 7 44.6 58 -0.6 30.8
03:15 1021 30.15 850 25.1 7.1 44.8 55 -1.2 29.8
03:20 1021 30.15 850 25.1 7.6 45.8 53 -1.3 29.6
03:25 1021 30.15 850 25.1 8.4 47.2 47 -2.3 27.9
03:30 1021 30.15 850 25.1 8.9 48 46 -1.9 28.5
03:35 1021 30.15 850 25.1 8.9 48.1 46 -1.9 28.5
03:40 1021 30.15 850 25.1 9 48.1 46 -2.1 28.2
03:45 1021 30.15 850 25.1 8.9 48 46 -2.1 28.1
03:50 1021 30.15 850 25.1 8.9 47.9 46 -2.2 28.1
03:55 1021 30.15 850 25.1 8.8 47.8 46 -2.2 28
04:00 1021 30.15 850 25.1 8.6 47.5 46 -2.4 27.7
04:05 1021 30.15 850 25.1 8.6 47.5 46 -2.3 27.9
04:10 1021 30.15 850 25.1 8.6 47.4 46 -2.4 27.6
04:15 1021 30.15 850 25.1 8.6 47.5 45 -2.5 27.5
04:20 1021 30.15 850 25.1 8.6 47.4 46 -2.5 27.5
04:25 1021 30.15 850 25.1 8.5 47.2 46 -2.5 27.4
04:30 1021 30.15 850 25.1 8.4 47.1 46 -2.6 27.4
04:35 1021 30.15 850 25.1 8.3 47 45 -2.8 27
04:40 1021 30.15 850 25.1 8.3 47 45 -2.8 26.9
04:45 1021 30.15 850 25.1 8.4 47.1 45 -2.8 26.9
04:50 1021 30.15 850 25.1 8.4 47.1 45 -3 26.7
04:55 1021 30.15 850 25.1 8.3 47 44 -3.1 26.4
05:00 1021 30.15 850 25.1 8.3 46.9 44 -3.1 26.4
05:05 1021 30.15 850 25.1 8.3 46.9 45 -3 26.6
05:10 1021 30.15 850 25.1 8.2 46.8 44 -3.3 26.1
05:15 1021 30.15 850 25.1 8.2 46.8 44 -3.3 26
05:20 1021 30.15 850 25.1 8.2 46.8 44 -3.4 25.8
05:25 1021 30.15 850 25.1 8.2 46.8 43 -3.5 25.7
05:30 1021 30.15 850 25.1 8.1 46.7 42 -3.8 25.1
05:35 1021 30.15 850 25.1 8.1 46.6 43 -3.8 25.2
05:40 1021 30.15 850 25.1 8.1 46.6 42 -4.1 24.6
05:45 1021 30.15 850 25.1 8.2 46.7 42 -4.1 24.6
05:50 1021 30.15 850 25.1 8.2 46.7 41 -4.4 24.2
05:55 1021 30.15 850 25.1 8.2 46.8 40 -4.5 23.8
06:00 1021 30.15 850 25.1 8.3 46.9 40 -4.6 23.8
06:05 1021 30.15 850 25.1 8.3 46.9 39 -4.7 23.5
06:10 1021 30.15 850 25.1 8.3 47 39 -5 23.1
06:15 1021 30.15 850 25.1 8.4 47.1 38 -4.9 23.1
06:20 1021 30.15 850 25.1 8.4 47.1 38 -5.1 22.9
06:25 1021 30.15 851 25.13 8.5 47.2 38 -5.2 22.6
06:30 1021 30.15 851 25.13 8.5 47.3 37 -5.3 22.4
06:35 1021 30.15 851 25.13 8.6 47.4 36 -5.5 22
06:40 1021 30.15 851 25.13 8.6 47.5 36 -5.7 21.8
06:45 1022 30.18 851 25.13 8.7 47.6 35 -5.9 21.3
06:50 1022 30.18 851 25.13 8.7 47.7 35 -5.9 21.3
06:55 1022 30.18 851 25.13 8.8 47.9 35 -5.7 21.7
07:00 1022 30.18 851 25.13 8.8 47.9 35 -5.9 21.4
07:05 1022 30.18 851 25.13 9 48.1 34 -5.9 21.4
07:10 1022 30.18 851 25.13 9.1 48.3 34 -6.1 21.1
07:15 1022 30.18 851 25.13 9.2 48.5 34 -6 21.2
07:20 1022 30.18 851 25.13 9.3 48.8 33 -6 21.2
07:25 1022 30.18 851 25.13 9.5 49.1 32 -6.2 20.8
07:30 1022 30.18 851 25.13 9.5 49.2 32 -6.2 20.8
07:35 1022 30.18 851 25.13 9.7 49.5 32 -6.1 21
07:40 1022 30.18 851 25.13 9.8 49.6 32 -6.3 20.6
07:45 1022 30.18 851 25.13 9.7 49.5 32 -6.1 21
07:50 1022 30.18 851 25.13 10 49.9 32 -6 21.1
07:55 1022 30.18 851 25.13 10.2 50.3 32 -5.9 21.3
08:00 1022 30.18 851 25.13 10.1 50.1 31 -6.1 21.1
08:05 1022 30.18 851 25.13 10.2 50.4 32 -5.8 21.6
08:10 1022 30.18 851 25.13 10.5 50.9 32 -5.5 22.1
08:15 1022 30.18 851 25.13 10.6 51 31 -5.6 21.8
08:20 1022 30.18 851 25.13 10.7 51.2 32 -5.5 22.1
08:25 1022 30.18 851 25.13 10.9 51.5 32 -5.3 22.4
08:30 1022 30.18 851 25.13 10.9 51.5 32 -5.2 22.7
08:35 1022 30.18 851 25.13 11 51.7 32 -5 22.9
08:40 1022 30.18 851 25.13 11 51.8 32 -5.2 22.7
08:45 1022 30.18 851 25.13 11.1 52 32 -4.9 23.2
08:50 1022 30.18 851 25.13 11.3 52.3 33 -4.6 23.8
08:55 1022 30.18 851 25.13 11.1 51.9 32 -4.8 23.4
09:00 1022 30.18 851 25.13 11.7 53 32 -4.4 24
09:05 1022 30.18 851 25.13 11.9 53.3 33 -4 24.8
09:10 1022 30.18 851 25.13 12 53.5 33 -3.8 25.1
09:15 1022 30.18 851 25.13 12.3 54.2 32 -3.9 25.1
09:20 1022 30.18 851 25.13 12.1 53.9 32 -4 24.8
09:25 1022 30.18 851 25.13 12.1 53.7 33 -3.9 25.1
09:30 1022 30.18 851 25.13 12 53.5 33 -3.6 25.5
09:35 1022 30.18 851 25.13 12 53.7 34 -3.3 26.1
09:40 1022 30.18 851 25.13 12.1 53.7 34 -3.3 26
09:45 1022 30.18 851 25.13 12 53.5 35 -2.9 26.8
09:50 1022 30.18 851 25.13 12.2 54 35 -2.7 27.2
09:55 1022 30.18 851 25.13 12.3 54.2 35 -2.7 27.2
10:00 1022 30.18 851 25.13 12.4 54.3 35 -2.4 27.6
10:05 1022 30.18 851 25.13 12.5 54.5 35 -2.5 27.6
10:10 1022 30.18 851 25.13 13 55.4 34 -2.5 27.5
10:15 1022 30.18 851 25.13 12.6 54.8 35 -2.3 27.9
10:20 1022 30.18 851 25.13 12.5 54.4 36 -2.3 27.9
10:25 1022 30.18 851 25.13 12.7 54.8 35 -2.3 27.9
10:30 1022 30.18 851 25.13 13.2 55.7 34 -2.3 27.8
10:35 1022 30.18 851 25.13 13.2 55.8 34 -2.4 27.6
10:40 1022 30.18 851 25.13 13.4 56 34 -2.2 28.1
10:45 1022 30.18 851 25.13 13 55.5 35 -2.2 28.1
10:50 1022 30.18 851 25.13 13.5 56.3 35 -1.7 28.9
10:55 1022 30.18 851 25.13 13.7 56.6 34 -1.9 28.6
11:00 1022 30.18 851 25.13 14 57.3 33 -1.8 28.8
11:05 1022 30.18 851 25.13 14.4 57.9 33 -1.6 29
11:10 1022 30.18 851 25.13 14.3 57.8 33 -1.6 29.2
11:15 1022 30.18 851 25.13 14 57.1 33 -1.8 28.7
11:20 1022 30.18 851 25.13 14.1 57.4 33 -1.9 28.6
11:25 1022 30.18 851 25.13 14.1 57.3 33 -1.8 28.8
11:30 1022 30.18 851 25.13 14.1 57.5 34 -1.4 29.4
11:35 1022 30.18 851 25.13 14.7 58.4 33 -1.3 29.7
11:40 1022 30.18 851 25.13 14.9 58.9 32 -1.5 29.4
11:45 1022 30.18 851 25.13 14.7 58.5 33 -1.3 29.7
11:50 1022 30.18 851 25.13 15.2 59.3 32 -1.4 29.4
11:55 1022 30.18 851 25.13 15.2 59.4 32 -1.5 29.3
12:00 1022 30.18 851 25.13 15.2 59.3 31 -1.6 29
12:05 1022 30.18 851 25.13 15.3 59.5 31 -1.6 29.2
12:10 1022 30.18 851 25.13 15 59 31 -1.7 29
12:15 1022 30.18 851 25.13 15.4 59.7 31 -1.5 29.3
12:20 1022 30.18 851 25.13 15.5 59.8 31 -1.5 29.4
12:25 1022 30.18 851 25.13 15.7 60.2 31 -1.2 29.8
12:30 1022 30.18 851 25.13 15.7 60.3 31 -1.4 29.5
12:35 1022 30.18 851 25.13 15.8 60.4 32 -1 30.3
12:40 1022 30.18 851 25.13 16.1 61 31 -0.9 30.4
12:45 1022 30.18 851 25.13 16 60.8 32 -0.7 30.8
12:50 1022 30.18 851 25.13 16 60.9 32 -0.6 30.9
12:55 1021 30.15 851 25.13 16.1 61 31 -0.9 30.4
13:00 1021 30.15 851 25.13 16.2 61.2 31 -0.9 30.5
13:05 1021 30.15 851 25.13 16.4 61.5 30 -1 30.3
13:10 1021 30.15 851 25.13 16.5 61.6 30 -0.8 30.5
13:15 1021 30.15 851 25.13 16.3 61.3 30 -1.1 29.9
13:20 1021 30.15 851 25.13 16.1 61 32 -0.4 31.3
13:25 1021 30.15 851 25.13 16.2 61.1 30 -1.1 30
13:30 1021 30.15 850 25.1 16.2 61.1 30 -1.1 30
13:35 1021 30.15 850 25.1 16.3 61.3 31 -0.8 30.5
13:40 1021 30.15 850 25.1 16.2 61.2 31 -0.7 30.8
13:45 1021 30.15 850 25.1 16.5 61.6 31 -0.8 30.6
13:50 1021 30.15 850 25.1 16.6 61.8 30 -0.8 30.5
13:55 1021 30.15 850 25.1 16.6 61.9 30 -0.8 30.6
14:00 1021 30.15 850 25.1 16.9 62.4 30 -0.7 30.7
14:05 1021 30.15 850 25.1 16.8 62.3 30 -0.6 30.9
14:10 1021 30.15 850 25.1 16.7 62.1 31 -0.2 31.6
14:15 1021 30.15 850 25.1 16.9 62.4 31 -0 32
14:20 1021 30.15 850 25.1 17.3 63.2 30 -0.2 31.7
14:25 1021 30.15 850 25.1 17.1 62.9 32 0.3 32.6
14:30 1021 30.15 850 25.1 17.2 62.9 30 -0.4 31.2
14:35 1021 30.15 850 25.1 17.1 62.7 31 -0.1 31.8
14:40 1021 30.15 850 25.1 17.3 63.1 30 -0.4 31.3
14:45 1021 30.15 850 25.1 17.5 63.5 30 -0 31.9
14:50 1021 30.15 850 25.1 17.6 63.6 30 0.1 32.1
14:55 1021 30.15 850 25.1 17.6 63.7 30 -0 32
15:00 1021 30.15 850 25.1 17.3 63.1 31 0.1 32.2
15:05 1021 30.15 850 25.1 17.4 63.4 30 -0.3 31.5
15:10 1021 30.15 850 25.1 17.4 63.3 31 0 32
15:15 1021 30.15 850 25.1 17.2 63 31 0.1 32.1
15:20 1021 30.15 850 25.1 17.7 63.8 30 0.1 32.1
15:25 1021 30.15 850 25.1 17.8 64 31 0.4 32.8
15:30 1021 30.15 850 25.1 17.7 63.8 30 -0.2 31.7
15:35 1021 30.15 850 25.1 17.6 63.7 31 0.2 32.4
15:40 1021 30.15 850 25.1 17.2 63 31 0.2 32.3
15:45 1021 30.15 850 25.1 17.2 62.9 30 -0.2 31.6
15:50 1021 30.15 850 25.1 17.6 63.7 29 -0.3 31.5
15:55 1021 30.15 850 25.1 17.6 63.8 30 0.2 32.3
16:00 1021 30.15 850 25.1 17.5 63.4 30 -0 31.9
16:05 1021 30.15 850 25.1 17.5 63.5 31 0.1 32.3
16:10 1021 30.15 850 25.1 17.7 63.8 30 0.1 32.1
16:15 1021 30.15 850 25.1 17.8 64 31 0.6 33.2
16:20 1021 30.15 850 25.1 17.9 64.3 30 0.4 32.8
16:25 1020 30.12 850 25.1 17.6 63.6 31 0.6 33
16:30 1020 30.12 850 25.1 17.5 63.5 32 0.7 33.2
16:35 1020 30.12 850 25.1 17.7 63.8 31 0.2 32.4
16:40 1020 30.12 850 25.1 17.6 63.7 31 0.4 32.6
16:45 1020 30.12 850 25.1 17.5 63.4 31 0.4 32.7
16:50 1020 30.12 850 25.1 17.5 63.4 31 0.1 32.2
16:55 1020 30.12 850 25.1 17.5 63.4 31 0.3 32.5
17:00 1020 30.12 850 25.1 17.6 63.7 31 0.3 32.5
17:05 1020 30.12 850 25.1 17.5 63.5 31 0.2 32.3
17:10 1020 30.12 850 25.1 17.4 63.4 31 0.1 32.2
17:15 1020 30.12 850 25.1 17.5 63.5 30 0.1 32.1
17:20 1020 30.12 850 25.1 17.5 63.5 31 0.5 32.9
17:25 1020 30.12 849 25.07 17.3 63.2 31 0 32.1
17:30 1020 30.12 849 25.07 17 62.6 31 0 32
17:35 1020 30.12 849 25.07 17.1 62.8 31 0.2 32.3
17:40 1020 30.12 849 25.07 17.3 63.1 32 0.3 32.6
17:45 1020 30.12 849 25.07 17.5 63.5 30 0 32
17:50 1020 30.12 849 25.07 17.3 63.1 32 0.4 32.7
17:55 1020 30.12 849 25.07 17.2 62.9 31 -0.1 31.9
18:00 1020 30.12 849 25.07 16.9 62.3 32 0.2 32.4
18:05 1020 30.12 849 25.07 16.7 62.1 32 0.1 32.1
18:10 1020 30.12 849 25.07 16.7 62.1 32 0 32.1
18:15 1020 30.12 849 25.07 16.6 62 32 0.1 32.1
18:20 1020 30.12 849 25.07 16.4 61.6 33 0.2 32.3
18:25 1020 30.12 849 25.07 16.4 61.6 33 0.1 32.2
18:30 1020 30.12 849 25.07 16.5 61.6 33 0.3 32.6
18:35 1020 30.12 849 25.07 16.6 62 33 0.3 32.5
18:40 1020 30.12 849 25.07 16.4 61.5 33 0.2 32.4
18:45 1020 30.12 849 25.07 16.3 61.3 33 0.3 32.5
18:50 1020 30.12 849 25.07 16.2 61.2 34 0.4 32.7
18:55 1020 30.12 849 25.07 16 60.9 34 0.5 32.8
19:00 1020 30.12 849 25.07 15.8 60.5 35 0.6 33.1
19:05 1020 30.12 849 25.07 15.8 60.5 35 0.4 32.7
19:10 1020 30.12 849 25.07 15.8 60.4 35 0.6 33.1
19:15 1020 30.12 849 25.07 15.6 60.1 36 0.8 33.5
19:20 1020 30.12 849 25.07 15.5 59.8 37 0.8 33.4
19:25 1020 30.12 849 25.07 15.4 59.6 37 0.8 33.4
19:30 1020 30.12 849 25.07 15.3 59.5 38 1 33.7
19:35 1020 30.12 849 25.07 15.2 59.4 37 0.8 33.5
19:40 1020 30.12 849 25.07 15.1 59.1 37 0.6 33.1
19:45 1020 30.12 849 25.07 14.9 58.9 38 0.9 33.6
19:50 1020 30.12 849 25.07 14.8 58.7 38 0.7 33.3
19:55 1020 30.12 849 25.07 14.7 58.5 38 0.8 33.4
20:00 1020 30.12 849 25.07 14.6 58.3 39 0.8 33.5
20:05 1020 30.12 849 25.07 14.6 58.2 39 0.8 33.4
20:10 1020 30.12 849 25.07 14.5 58 39 0.6 33.1
20:15 1020 30.12 849 25.07 14.3 57.8 39 0.7 33.2
20:20 1020 30.12 849 25.07 14.2 57.6 39 0.7 33.2
20:25 1020 30.12 849 25.07 14.1 57.3 40 0.6 33.2
20:30 1020 30.12 849 25.07 14 57.1 40 0.7 33.2
20:35 1020 30.12 849 25.07 13.9 56.9 40 0.7 33.3
20:40 1020 30.12 849 25.07 13.7 56.7 41 0.7 33.3
20:45 1020 30.12 849 25.07 13.6 56.5 41 0.7 33.3
20:50 1020 30.12 849 25.07 13.5 56.3 42 0.8 33.4
20:55 1020 30.12 849 25.07 13.3 56 42 0.8 33.4
21:00 1020 30.12 849 25.07 13.2 55.7 42 0.7 33.2
21:05 1020 30.12 849 25.07 13.1 55.5 43 0.8 33.4
21:10 1020 30.12 850 25.1 13 55.4 43 0.7 33.3
21:15 1020 30.12 850 25.1 12.9 55.1 43 0.7 33.2
21:20 1020 30.12 850 25.1 12.8 55 44 0.8 33.4
21:25 1020 30.12 850 25.1 12.6 54.7 44 0.8 33.4
21:30 1020 30.12 850 25.1 12.5 54.5 44 0.7 33.3
21:35 1020 30.12 850 25.1 12.4 54.3 45 0.8 33.5
21:40 1020 30.12 850 25.1 12.3 54.2 45 0.8 33.5
21:45 1020 30.12 850 25.1 12.3 54.1 45 0.8 33.4
21:50 1021 30.15 850 25.1 12.2 54 46 0.9 33.5
21:55 1021 30.15 850 25.1 12.2 53.9 45 0.7 33.3
22:00 1021 30.15 850 25.1 12.2 53.9 46 0.8 33.5
22:05 1021 30.15 850 25.1 12 53.7 46 0.8 33.5
22:10 1021 30.15 850 25.1 12 53.7 45 0.6 33.2
22:15 1021 30.15 850 25.1 12.1 53.7 45 0.6 33.2
22:20 1021 30.15 850 25.1 11.9 53.5 46 0.8 33.4
22:25 1021 30.15 850 25.1 11.8 53.3 46 0.7 33.3
22:30 1021 30.15 850 25.1 11.9 53.3 46 0.7 33.3
22:35 1021 30.15 850 25.1 11.8 53.2 46 0.6 33.1
22:40 1021 30.15 850 25.1 11.8 53.2 46 0.6 33.1
22:45 1021 30.15 850 25.1 11.7 53.1 47 0.7 33.3
22:50 1021 30.15 850 25.1 11.6 52.9 47 0.7 33.3
22:55 1021 30.15 850 25.1 11.5 52.8 47 0.6 33.1
23:00 1021 30.15 850 25.1 11.5 52.6 47 0.6 33.1
23:05 1021 30.15 850 25.1 11.3 52.3 47 0.6 33
23:10 1021 30.15 850 25.1 11.3 52.3 47 0.4 32.7
23:15 1021 30.15 850 25.1 11.2 52.2 47 0.3 32.6
23:20 1021 30.15 850 25.1 11.2 52.1 46 0.1 32.3
23:25 1021 30.15 850 25.1 11.2 52.2 46 -0 32
23:30 1021 30.15 850 25.1 11.2 52.2 46 0.1 32.1
23:35 1021 30.15 850 25.1 11.1 52 46 -0.1 31.8
23:40 1021 30.15 850 25.1 11 51.8 46 -0.2 31.6
23:45 1021 30.15 850 25.1 10.9 51.6 46 -0.2 31.7
23:50 1021 30.15 850 25.1 10.7 51.2 47 -0.2 31.7
23:55 1021 30.15 850 25.1 10.6 51 46 -0.4 31.2
24:00 1021 30.15 850 25.1 10.5 50.8 46 -0.5 31.1